createdAt,value
2019-05-18T00:00:23.377Z,10.80
2019-05-18T00:02:54.175Z,10.90
2019-05-18T00:05:26.915Z,10.90
2019-05-18T00:07:57.830Z,10.90
2019-05-18T00:10:28.689Z,10.90
2019-05-18T00:12:59.670Z,10.70
2019-05-18T00:15:31.874Z,10.80
2019-05-18T00:18:02.831Z,10.80
2019-05-18T00:20:33.827Z,10.80
2019-05-18T00:23:04.709Z,10.80
2019-05-18T00:25:36.990Z,10.80
2019-05-18T00:28:08.020Z,10.50
2019-05-18T00:30:38.962Z,10.20
2019-05-18T00:33:10.016Z,10.10
2019-05-18T00:35:42.263Z,10.00
2019-05-18T00:38:13.078Z,10.10
2019-05-18T00:40:43.938Z,10.10
2019-05-18T00:43:14.975Z,10.10
2019-05-18T00:45:47.114Z,10.10
2019-05-18T00:48:17.976Z,10.00
2019-05-18T00:50:48.727Z,10.00
2019-05-18T00:53:19.648Z,9.90
2019-05-18T00:55:51.620Z,9.90
2019-05-18T00:58:22.447Z,9.80
2019-05-18T01:00:53.386Z,9.90
2019-05-18T01:03:25.381Z,9.90
2019-05-18T01:05:56.253Z,9.80
2019-05-18T01:08:27.428Z,9.70
2019-05-18T01:10:58.305Z,9.90
2019-05-18T01:13:29.277Z,9.90
2019-05-18T01:16:00.160Z,9.80
2019-05-18T01:18:31.141Z,9.70
2019-05-18T01:21:01.909Z,9.80
2019-05-18T01:23:33.926Z,9.60
2019-05-18T01:26:04.706Z,9.70
2019-05-18T01:28:35.643Z,9.60
2019-05-18T01:31:06.580Z,9.60
2019-05-18T01:33:38.798Z,9.50
2019-05-18T01:36:09.992Z,9.50
2019-05-18T01:38:40.856Z,9.50
2019-05-18T01:41:11.576Z,9.50
2019-05-18T01:43:43.624Z,9.30
2019-05-18T01:46:14.565Z,9.30
2019-05-18T01:48:45.335Z,9.10
2019-05-18T01:51:16.171Z,9.20
2019-05-18T01:53:48.400Z,9.20
2019-05-18T01:56:19.268Z,9.10
2019-05-18T01:58:50.045Z,9.10
2019-05-18T02:01:21.012Z,9.10
2019-05-18T02:03:53.365Z,9.10
2019-05-18T02:06:24.837Z,9.20
2019-05-18T02:08:55.773Z,9.10
2019-05-18T02:11:26.651Z,9.10
2019-05-18T02:13:58.652Z,9.00
2019-05-18T02:16:29.608Z,9.00
2019-05-18T02:19:00.479Z,9.00
2019-05-18T02:21:31.347Z,9.00
2019-05-18T02:24:02.252Z,8.90
2019-05-18T02:26:33.096Z,8.90
2019-05-18T02:29:03.925Z,8.90
2019-05-18T02:31:34.705Z,8.90
2019-05-18T02:34:06.712Z,8.90
2019-05-18T02:36:37.725Z,8.80
2019-05-18T02:39:09.558Z,8.80
2019-05-18T02:41:40.425Z,8.80
2019-05-18T02:44:11.423Z,8.80
2019-05-18T02:46:42.294Z,8.70
2019-05-18T02:49:13.107Z,8.80
2019-05-18T02:51:43.880Z,8.80
2019-05-18T02:54:16.178Z,8.70
2019-05-18T02:56:46.943Z,8.70
2019-05-18T02:59:17.831Z,8.70
2019-05-18T03:01:48.636Z,8.70
2019-05-18T03:04:19.490Z,8.70
2019-05-18T03:06:50.276Z,8.60
2019-05-18T03:09:21.056Z,8.60
2019-05-18T03:11:51.908Z,8.70
2019-05-18T03:14:22.877Z,8.80
2019-05-18T03:16:55.166Z,8.80
2019-05-18T03:19:26.121Z,8.80
2019-05-18T03:22:00.715Z,8.80
2019-05-18T03:24:29.419Z,8.70
2019-05-18T03:27:00.399Z,8.80
2019-05-18T03:29:32.232Z,8.80
2019-05-18T03:32:04.042Z,8.80
2019-05-18T03:34:35.028Z,8.80
2019-05-18T03:37:06.868Z,8.90
2019-05-18T03:39:37.826Z,8.90
2019-05-18T03:42:08.761Z,8.80
2019-05-18T03:44:40.615Z,8.80
2019-05-18T03:47:13.823Z,8.80
2019-05-18T03:49:44.826Z,9.00
2019-05-18T03:52:15.572Z,9.00
2019-05-18T03:54:46.521Z,9.00
2019-05-18T03:57:18.772Z,9.10
2019-05-18T03:59:49.904Z,9.30
2019-05-18T04:02:21.389Z,9.40
2019-05-18T04:04:52.368Z,9.50
2019-05-18T04:07:24.410Z,9.70
2019-05-18T04:09:55.222Z,9.80
2019-05-18T04:12:26.160Z,9.80
2019-05-18T04:14:57.200Z,10.00
2019-05-18T04:17:29.299Z,10.10
2019-05-18T04:20:00.323Z,10.20
2019-05-18T04:22:31.344Z,10.30
2019-05-18T04:25:02.403Z,10.40
2019-05-18T04:27:33.191Z,10.50
2019-05-18T04:30:05.282Z,10.70
2019-05-18T04:32:36.127Z,10.80
2019-05-18T04:35:07.895Z,10.90
2019-05-18T04:37:40.314Z,11.00
2019-05-18T04:40:11.694Z,11.20
2019-05-18T04:42:42.643Z,11.30
2019-05-18T04:45:13.743Z,11.30
2019-05-18T04:47:48.550Z,11.50
2019-05-18T04:50:18.111Z,11.60
2019-05-18T04:52:48.977Z,11.70
2019-05-18T04:55:19.935Z,11.80
2019-05-18T04:57:51.825Z,11.90
2019-05-18T05:00:22.699Z,11.90
2019-05-18T05:02:53.615Z,12.00
2019-05-18T05:05:24.452Z,12.10
2019-05-18T05:07:55.291Z,12.30
2019-05-18T05:10:26.186Z,12.50
2019-05-18T05:12:57.032Z,12.80
2019-05-18T05:15:27.998Z,13.30
2019-05-18T05:18:00.167Z,13.80
2019-05-18T05:20:31.028Z,14.30
2019-05-18T05:23:02.125Z,14.90
2019-05-18T05:25:33.287Z,15.50
2019-05-18T05:28:05.529Z,15.80
2019-05-18T05:30:36.495Z,16.40
2019-05-18T05:33:07.357Z,16.80
2019-05-18T05:35:38.439Z,17.40
2019-05-18T05:38:10.333Z,17.40
2019-05-18T05:40:41.249Z,17.60
2019-05-18T05:43:12.102Z,17.90
2019-05-18T05:45:43.276Z,18.10
2019-05-18T05:48:15.326Z,18.30
2019-05-18T05:50:46.218Z,18.40
2019-05-18T05:53:16.989Z,19.00
2019-05-18T05:55:48.091Z,19.10
2019-05-18T05:58:20.269Z,19.20
2019-05-18T06:00:51.039Z,18.40
2019-05-18T06:03:22.146Z,18.90
2019-05-18T06:05:54.130Z,19.20
2019-05-18T06:08:26.399Z,19.80
2019-05-18T06:10:57.439Z,20.00
2019-05-18T06:13:28.376Z,20.10
2019-05-18T06:15:59.366Z,19.90
2019-05-18T06:18:31.249Z,20.00
2019-05-18T06:21:02.129Z,20.30
2019-05-18T06:23:32.915Z,20.90
2019-05-18T06:26:03.766Z,20.70
2019-05-18T06:28:34.670Z,20.70
2019-05-18T06:31:05.560Z,21.00
2019-05-18T06:33:36.363Z,21.30
2019-05-18T06:36:08.225Z,21.50
2019-05-18T06:38:40.523Z,21.20
2019-05-18T06:41:11.455Z,22.10
2019-05-18T06:43:42.396Z,22.60
2019-05-18T06:46:13.335Z,22.30
2019-05-18T06:48:45.303Z,22.10
2019-05-18T06:51:16.211Z,21.80
2019-05-18T06:53:47.174Z,21.70
2019-05-18T06:56:18.300Z,22.50
2019-05-18T06:58:52.029Z,21.90
2019-05-18T07:01:23.623Z,22.10
2019-05-18T07:03:55.349Z,22.00
2019-05-18T07:06:32.851Z,22.90
2019-05-18T07:09:13.717Z,22.80
2019-05-18T07:11:42.296Z,23.30
2019-05-18T07:14:26.231Z,23.10
2019-05-18T07:17:06.212Z,23.10
2019-05-18T07:19:43.910Z,23.60
2019-05-18T07:22:22.890Z,23.80
2019-05-18T07:24:59.546Z,23.90
2019-05-18T07:27:35.107Z,24.10
2019-05-18T07:30:10.754Z,24.50
2019-05-18T07:32:48.490Z,24.70
2019-05-18T07:35:21.927Z,24.10
2019-05-18T07:37:54.675Z,24.50
2019-05-18T07:40:25.867Z,24.60
2019-05-18T07:42:58.454Z,25.50
2019-05-18T07:45:31.756Z,25.20
2019-05-18T07:48:02.985Z,25.50
2019-05-18T07:50:40.753Z,25.10
2019-05-18T07:53:14.113Z,25.50
2019-05-18T07:55:49.643Z,25.70
2019-05-18T07:58:22.234Z,25.50
2019-05-18T08:00:54.963Z,25.40
2019-05-18T08:03:30.455Z,25.50
2019-05-18T08:06:06.439Z,27.30
2019-05-18T08:08:42.966Z,27.60
2019-05-18T08:11:16.579Z,27.00
2019-05-18T08:13:52.928Z,26.70
2019-05-18T08:16:27.188Z,26.40
2019-05-18T08:19:03.067Z,26.00
2019-05-18T08:21:35.764Z,26.20
2019-05-18T08:24:08.935Z,26.70
2019-05-18T08:29:35.054Z,25.70
2019-05-18T08:32:08.887Z,26.30
2019-05-18T08:34:43.825Z,25.60
2019-05-18T08:37:15.799Z,25.70
2019-05-18T08:39:49.391Z,26.70
2019-05-18T08:42:21.351Z,26.10
2019-05-18T08:44:58.875Z,25.70
2019-05-18T08:47:32.990Z,27.80
2019-05-18T08:50:10.542Z,27.20
2019-05-18T08:52:48.609Z,26.70
2019-05-18T08:55:25.466Z,27.80
2019-05-18T08:58:05.592Z,27.60
2019-05-18T09:00:40.294Z,26.80
2019-05-18T09:03:16.460Z,28.10
2019-05-18T09:05:50.502Z,28.20
2019-05-18T09:08:24.402Z,28.30
2019-05-18T09:10:57.389Z,27.90
2019-05-18T09:13:30.817Z,27.80
2019-05-18T09:16:09.039Z,28.40
2019-05-18T09:18:41.570Z,27.60
2019-05-18T09:21:14.239Z,27.40
2019-05-18T09:23:44.981Z,27.10
2019-05-18T09:26:16.090Z,27.90
2019-05-18T09:28:51.354Z,27.50
2019-05-18T09:31:23.237Z,28.20
2019-05-18T09:33:59.276Z,28.60
2019-05-18T09:36:30.657Z,28.70
2019-05-18T09:39:07.115Z,27.70
2019-05-18T09:41:42.331Z,28.70
2019-05-18T09:44:16.550Z,28.60
2019-05-18T09:46:55.367Z,27.50
2019-05-18T09:49:30.303Z,27.80
2019-05-18T09:52:04.170Z,27.60
2019-05-18T09:54:38.630Z,26.90
2019-05-18T09:57:09.465Z,26.70
2019-05-18T09:59:40.404Z,26.80
2019-05-18T10:02:11.445Z,28.40
2019-05-18T10:04:43.173Z,27.90
2019-05-18T10:07:14.868Z,27.40
2019-05-18T10:09:51.925Z,27.90
2019-05-18T10:12:25.354Z,28.30
2019-05-18T10:15:01.490Z,28.50
2019-05-18T10:17:32.504Z,28.20
2019-05-18T10:20:07.916Z,26.40
2019-05-18T10:22:55.570Z,28.10
2019-05-18T10:25:16.631Z,28.30
2019-05-18T10:27:48.995Z,27.50
2019-05-18T10:30:20.211Z,27.30
2019-05-18T10:32:51.058Z,26.70
2019-05-18T10:35:21.853Z,26.20
2019-05-18T10:37:53.051Z,28.50
2019-05-18T10:40:24.630Z,28.60
2019-05-18T10:42:56.456Z,28.80
2019-05-18T10:45:27.385Z,28.60
2019-05-18T10:47:58.350Z,28.80
2019-05-18T10:50:31.748Z,27.20
2019-05-18T10:53:06.991Z,27.20
2019-05-18T10:55:37.885Z,27.20
2019-05-18T10:58:13.507Z,28.60
2019-05-18T11:00:44.386Z,27.50
2019-05-18T11:03:15.668Z,27.90
2019-05-18T11:05:48.509Z,28.90
2019-05-18T11:08:20.319Z,28.20
2019-05-18T11:10:51.858Z,27.70
2019-05-18T11:13:25.868Z,28.20
2019-05-18T11:16:01.328Z,29.70
2019-05-18T11:18:36.789Z,29.40
2019-05-18T11:21:07.671Z,29.00
2019-05-18T11:23:43.767Z,29.40
2019-05-18T11:26:10.889Z,30.30
2019-05-18T11:28:41.779Z,28.30
2019-05-18T11:31:18.065Z,27.30
2019-05-18T11:33:54.354Z,27.60
2019-05-18T11:36:25.576Z,28.40
2019-05-18T11:38:56.927Z,29.00
2019-05-18T11:41:27.727Z,29.00
2019-05-18T11:44:00.227Z,29.30
2019-05-18T11:46:31.383Z,28.50
2019-05-18T11:49:03.569Z,28.10
2019-05-18T11:51:34.586Z,28.00
2019-05-18T11:54:06.881Z,28.60
2019-05-18T11:56:37.794Z,28.50
2019-05-18T11:59:09.295Z,29.10
2019-05-18T12:01:41.820Z,28.50
2019-05-18T12:04:12.724Z,28.60
2019-05-18T12:06:43.593Z,29.50
2019-05-18T12:09:14.536Z,29.80
2019-05-18T12:11:45.912Z,28.50
2019-05-18T12:14:16.925Z,26.90
2019-05-18T12:16:47.675Z,26.60
2019-05-18T12:19:18.793Z,27.00
2019-05-18T12:21:50.441Z,27.90
2019-05-18T12:24:21.357Z,27.40
2019-05-18T12:26:56.112Z,26.90
2019-05-18T12:29:28.742Z,27.30
2019-05-18T12:32:00.812Z,28.30
2019-05-18T12:34:32.091Z,28.90
2019-05-18T12:37:03.671Z,28.80
2019-05-18T12:39:35.441Z,29.70
2019-05-18T12:42:07.685Z,29.50
2019-05-18T12:44:38.539Z,28.70
2019-05-18T12:47:09.724Z,27.80
2019-05-18T12:49:42.033Z,27.80
2019-05-18T12:52:13.072Z,28.10
2019-05-18T12:54:46.861Z,28.60
2019-05-18T12:57:16.384Z,27.90
2019-05-18T12:59:47.227Z,28.40
2019-05-18T13:02:18.115Z,28.80
2019-05-18T13:04:49.008Z,29.20
2019-05-18T13:07:19.728Z,28.10
2019-05-18T13:09:51.788Z,27.90
2019-05-18T13:12:22.593Z,27.60
2019-05-18T13:14:53.428Z,27.60
2019-05-18T13:17:26.264Z,27.10
2019-05-18T13:19:59.846Z,27.70
2019-05-18T13:22:31.570Z,27.90
2019-05-18T13:25:03.845Z,27.50
2019-05-18T13:27:39.197Z,28.30
2019-05-18T13:30:10.281Z,28.90
2019-05-18T13:32:41.329Z,28.30
2019-05-18T13:35:15.692Z,27.80
2019-05-18T13:37:47.262Z,27.80
2019-05-18T13:40:20.098Z,27.70
2019-05-18T13:42:51.279Z,27.80
2019-05-18T13:45:22.209Z,27.30
2019-05-18T13:47:54.804Z,27.90
2019-05-18T13:50:27.689Z,27.90
2019-05-18T13:53:00.744Z,27.00
2019-05-18T13:55:31.710Z,27.20
2019-05-18T13:58:02.649Z,27.20
2019-05-18T14:00:33.690Z,26.80
2019-05-18T14:03:04.701Z,27.10
2019-05-18T14:05:35.535Z,26.80
2019-05-18T14:08:06.307Z,27.00
2019-05-18T14:10:37.342Z,27.10
2019-05-18T14:13:08.279Z,27.00
2019-05-18T14:15:39.173Z,26.90
2019-05-18T14:18:10.156Z,27.10
2019-05-18T14:20:42.425Z,27.70
2019-05-18T14:23:13.439Z,27.10
2019-05-18T14:25:46.137Z,26.90
2019-05-18T14:28:17.295Z,26.90
2019-05-18T14:30:48.532Z,27.80
2019-05-18T14:33:22.438Z,27.70
2019-05-18T14:35:59.717Z,27.90
2019-05-18T14:38:40.193Z,27.10
2019-05-18T14:41:17.123Z,26.00
2019-05-18T14:43:49.118Z,27.10
2019-05-18T14:46:20.421Z,27.40
2019-05-18T14:48:52.016Z,27.80
2019-05-18T14:51:34.804Z,27.00
2019-05-18T14:54:05.994Z,27.50
2019-05-18T14:56:37.242Z,27.00
2019-05-18T14:59:10.909Z,26.80
2019-05-18T15:01:46.094Z,26.40
2019-05-18T15:04:18.116Z,26.80
2019-05-18T15:06:49.281Z,26.70
2019-05-18T15:09:23.092Z,26.60
2019-05-18T15:11:55.514Z,26.20
2019-05-18T15:14:26.698Z,25.60
2019-05-18T15:16:59.717Z,25.60
2019-05-18T15:19:30.849Z,25.20
2019-05-18T15:22:03.763Z,25.10
2019-05-18T15:24:35.270Z,25.00
2019-05-18T15:27:07.707Z,24.90
2019-05-18T15:29:40.256Z,24.70
2019-05-18T15:32:11.585Z,24.50
2019-05-18T15:34:43.179Z,24.40
2019-05-18T15:37:14.558Z,24.70
2019-05-18T15:39:47.973Z,24.50
2019-05-18T15:42:19.527Z,24.60
2019-05-18T15:44:50.528Z,24.50
2019-05-18T15:47:21.610Z,24.70
2019-05-18T15:49:54.091Z,24.50
2019-05-18T15:52:25.619Z,24.60
2019-05-18T15:54:56.891Z,24.60
2019-05-18T15:57:29.080Z,24.70
2019-05-18T16:00:00.327Z,24.50
2019-05-18T16:02:31.625Z,24.70
2019-05-18T16:05:03.263Z,24.70
2019-05-18T16:07:34.512Z,24.30
2019-05-18T16:10:06.522Z,24.30
2019-05-18T16:12:38.141Z,24.30
2019-05-18T16:15:10.977Z,24.30
2019-05-18T16:17:44.841Z,24.30
2019-05-18T16:20:16.384Z,24.50
2019-05-18T16:22:47.699Z,24.50
2019-05-18T16:25:18.883Z,24.40
2019-05-18T16:27:51.515Z,24.40
2019-05-18T16:30:22.633Z,24.40
2019-05-18T16:32:53.531Z,24.50
2019-05-18T16:35:24.377Z,24.20
2019-05-18T16:37:56.261Z,24.20
2019-05-18T16:40:27.162Z,24.10
2019-05-18T16:42:58.102Z,23.90
2019-05-18T16:45:28.980Z,24.10
2019-05-18T16:47:59.877Z,24.10
2019-05-18T16:50:30.808Z,23.90
2019-05-18T16:53:01.870Z,23.90
2019-05-18T16:55:33.001Z,23.70
2019-05-18T16:58:04.047Z,23.80
2019-05-18T17:00:34.912Z,23.80
2019-05-18T17:03:05.706Z,23.70
2019-05-18T17:05:36.380Z,23.70
2019-05-18T17:08:08.711Z,23.80
2019-05-18T17:10:39.463Z,23.70
2019-05-18T17:13:10.293Z,23.70
2019-05-18T17:15:40.927Z,23.30
2019-05-18T17:18:12.973Z,23.40
2019-05-18T17:20:44.012Z,23.20
2019-05-18T17:23:15.795Z,23.30
2019-05-18T17:25:48.364Z,23.20
2019-05-18T17:28:20.604Z,23.00
2019-05-18T17:30:51.461Z,22.90
2019-05-18T17:33:22.495Z,22.80
2019-05-18T17:36:00.213Z,22.70
2019-05-18T17:38:25.908Z,22.70
2019-05-18T17:40:56.741Z,22.60
2019-05-18T17:43:28.578Z,22.60
2019-05-18T17:46:00.862Z,22.40
2019-05-18T17:48:32.117Z,22.20
2019-05-18T17:51:03.222Z,22.20
2019-05-18T17:53:36.573Z,22.10
2019-05-18T17:56:14.819Z,21.90
2019-05-18T17:58:47.642Z,21.80
2019-05-18T18:01:20.772Z,21.60
2019-05-18T18:03:55.283Z,21.60
2019-05-18T18:06:29.267Z,21.50
2019-05-18T18:09:00.352Z,21.40
2019-05-18T18:11:33.838Z,21.20
2019-05-18T18:14:05.906Z,21.10
2019-05-18T18:16:38.422Z,20.90
2019-05-18T18:19:13.506Z,20.70
2019-05-18T18:21:45.493Z,20.80
2019-05-18T18:24:16.896Z,20.70
2019-05-18T18:26:50.183Z,20.50
2019-05-18T18:29:21.387Z,20.40
2019-05-18T18:31:52.469Z,20.30
2019-05-18T18:34:23.342Z,20.30
2019-05-18T18:36:56.115Z,20.20
2019-05-18T18:39:27.022Z,20.00
2019-05-18T18:41:57.957Z,19.70
2019-05-18T18:44:28.787Z,19.50
2019-05-18T18:47:00.575Z,19.30
2019-05-18T18:49:31.616Z,19.20
2019-05-18T18:52:02.738Z,19.00
2019-05-18T18:54:33.738Z,19.00
2019-05-18T18:57:05.642Z,18.70
2019-05-18T18:59:37.925Z,18.60
2019-05-18T19:02:10.176Z,18.40
2019-05-18T19:04:41.112Z,18.30
2019-05-18T19:07:18.623Z,18.40
2019-05-18T19:09:49.888Z,18.20
2019-05-18T19:12:22.000Z,17.90
2019-05-18T19:14:54.592Z,17.70
2019-05-18T19:17:25.837Z,17.40
2019-05-18T19:19:57.332Z,17.40
2019-05-18T19:22:29.679Z,17.10
2019-05-18T19:25:00.907Z,17.00
2019-05-18T19:27:32.171Z,16.90
2019-05-18T19:30:09.349Z,16.90
2019-05-18T19:32:41.367Z,16.70
2019-05-18T19:35:12.626Z,16.60
2019-05-18T19:37:45.017Z,16.60
2019-05-18T19:40:16.526Z,16.50
2019-05-18T19:42:53.763Z,16.10
2019-05-18T19:45:25.496Z,16.10
2019-05-18T19:47:56.860Z,16.10
2019-05-18T19:50:28.102Z,15.80
2019-05-18T19:52:59.348Z,15.80
2019-05-18T19:55:31.975Z,15.60
2019-05-18T19:58:08.806Z,15.60
2019-05-18T20:00:36.052Z,15.40
2019-05-18T20:03:12.906Z,15.40
2019-05-18T20:05:47.558Z,15.20
2019-05-18T20:08:22.551Z,15.00
2019-05-18T20:10:55.414Z,14.90
2019-05-18T20:13:27.329Z,15.30
2019-05-18T20:16:03.228Z,14.90
2019-05-18T20:18:35.967Z,14.80
2019-05-18T20:21:10.489Z,14.70
2019-05-18T20:23:41.462Z,14.60
2019-05-18T20:26:12.897Z,14.90
2019-05-18T20:28:45.753Z,14.60
2019-05-18T20:31:19.983Z,14.50
2019-05-18T20:33:52.680Z,14.40
2019-05-18T20:36:24.102Z,14.20
2019-05-18T20:38:57.327Z,14.20
2019-05-18T20:41:28.874Z,14.10
2019-05-18T20:44:03.947Z,14.00
2019-05-18T20:46:38.597Z,14.00
2019-05-18T20:49:11.697Z,13.80
2019-05-18T20:51:49.090Z,13.80
2019-05-18T20:54:40.927Z,13.70
2019-05-18T20:57:16.664Z,13.60
2019-05-18T20:59:48.424Z,13.60
2019-05-18T21:02:19.666Z,13.50
2019-05-18T21:04:50.974Z,13.40
2019-05-18T21:07:24.248Z,13.40
2019-05-18T21:09:59.341Z,13.30
2019-05-18T21:12:33.456Z,13.30
2019-05-18T21:15:09.451Z,13.10
2019-05-18T21:17:44.143Z,13.20
2019-05-18T21:20:20.496Z,12.90
2019-05-18T21:23:01.292Z,12.80
2019-05-18T21:25:40.545Z,12.90
2019-05-18T21:28:15.024Z,12.70
2019-05-18T21:30:50.924Z,12.80
2019-05-18T21:33:27.371Z,12.90
2019-05-18T21:36:07.091Z,12.80
2019-05-18T21:38:42.313Z,12.60
2019-05-18T21:41:21.454Z,12.70
2019-05-18T21:46:54.187Z,12.60
2019-05-18T21:49:32.639Z,12.50
2019-05-18T21:52:13.236Z,12.50
2019-05-18T21:54:47.615Z,12.60
2019-05-18T21:57:26.125Z,12.60
2019-05-18T22:00:02.102Z,12.60
2019-05-18T22:02:35.043Z,12.50
2019-05-18T22:05:09.220Z,12.50
2019-05-18T22:07:49.953Z,12.50
2019-05-18T22:10:25.851Z,12.50
2019-05-18T22:12:57.292Z,12.40
2019-05-18T22:15:30.384Z,12.10
2019-05-18T22:18:07.097Z,12.10
2019-05-18T22:20:43.467Z,11.90
2019-05-18T22:23:11.956Z,12.10
2019-05-18T22:25:44.120Z,12.10
2019-05-18T22:28:21.443Z,12.10
2019-05-18T22:30:54.267Z,12.10
2019-05-18T22:33:25.891Z,12.00
2019-05-18T22:35:56.831Z,11.90
2019-05-18T22:38:29.548Z,11.80
2019-05-18T22:41:00.763Z,11.80
2019-05-18T22:43:31.996Z,11.60
2019-05-18T22:46:03.139Z,12.00
2019-05-18T22:48:41.272Z,12.30
2019-05-18T22:51:09.012Z,11.90
2019-05-18T22:53:39.881Z,11.70
2019-05-18T22:56:10.681Z,11.60
2019-05-18T22:58:41.516Z,11.40
2019-05-18T23:01:12.455Z,11.40
2019-05-18T23:03:43.294Z,11.30
2019-05-18T23:06:14.228Z,11.10
2019-05-18T23:08:46.243Z,11.10
2019-05-18T23:11:17.107Z,11.10
2019-05-18T23:13:47.962Z,11.00
2019-05-18T23:16:18.802Z,10.90
2019-05-18T23:18:56.740Z,10.90
2019-05-18T23:21:22.927Z,10.80
2019-05-18T23:23:53.763Z,10.80
2019-05-18T23:26:25.933Z,10.80
2019-05-18T23:28:56.664Z,10.70
2019-05-18T23:31:27.516Z,10.80
2019-05-18T23:33:59.185Z,10.70
2019-05-18T23:36:32.987Z,10.70
2019-05-18T23:39:05.446Z,10.70
2019-05-18T23:41:36.866Z,10.70
2019-05-18T23:44:08.085Z,10.60
2019-05-18T23:46:40.787Z,10.50
2019-05-18T23:49:12.255Z,10.40
2019-05-18T23:51:43.734Z,10.40
2019-05-18T23:54:14.924Z,10.30
2019-05-18T23:56:46.398Z,10.20
2019-05-18T23:59:17.792Z,10.20
